Time;durP1;ratioP1;P1;durP2;ratioP2;P2;SDS_P1;SDS_P2;PMS_P1;PMS_P2;Temp;Humidity;BMP_temperature;BMP_pressure;BME280_temperature;BME280_humidity;BME280_pressure;Samples;Min_cycle;Max_cycle;Signal;HPM_P1;HPM_P2
2023/01/12 00:02:21;;;;;;;4.88;2.20;;;5.10;99.90;;;;;;4985676;28;20061;-81
2023/01/12 00:04:49;;;;;;;1.20;1.10;;;5.10;99.90;;;;;;4991917;28;20065;-81
2023/01/12 00:07:17;;;;;;;1.90;1.23;;;5.10;99.90;;;;;;4993570;28;20062;-81
2023/01/12 00:09:45;;;;;;;1.90;1.75;;;5.20;99.90;;;;;;4986350;28;20046;-81
2023/01/12 00:12:13;;;;;;;2.15;1.50;;;5.30;99.90;;;;;;4992151;28;20057;-81
2023/01/12 00:14:40;;;;;;;1.45;1.35;;;5.30;99.90;;;;;;4976395;28;20057;-81
2023/01/12 00:17:10;;;;;;;2.03;1.05;;;5.20;99.90;;;;;;5007841;28;20061;-81
2023/01/12 00:19:38;;;;;;;1.13;1.13;;;5.20;99.90;;;;;;4987251;28;20050;-80
2023/01/12 00:22:10;;;;;;;5.40;2.95;;;5.30;99.90;;;;;;4993077;28;20058;-81
2023/01/12 00:24:42;;;;;;;1.75;1.65;;;5.30;99.90;;;;;;4985447;28;20421;-81
2023/01/12 00:27:13;;;;;;;;;;;5.30;99.90;;;;;;4992474;28;20387;-81
2023/01/12 00:29:41;;;;;;;1.60;1.50;;;5.30;99.90;;;;;;4970827;28;19947;-81
2023/01/12 00:32:14;;;;;;;2.33;1.13;;;5.40;99.90;;;;;;5006250;28;20057;-81
2023/01/12 00:34:42;;;;;;;1.20;1.10;;;5.30;99.90;;;;;;4988559;28;20058;-81
2023/01/12 00:37:10;;;;;;;1.60;1.30;;;5.30;99.90;;;;;;4991269;28;20050;-81
2023/01/12 00:39:38;;;;;;;0.95;0.95;;;5.30;99.90;;;;;;5002079;28;20058;-81
2023/01/12 00:47:45;;;;;;;4.15;2.20;;;5.10;99.90;;;;;;5012163;28;20045;-81
2023/01/12 00:50:13;;;;;;;0.98;0.98;;;5.10;99.90;;;;;;4986703;28;20337;-81
2023/01/12 00:52:42;;;;;;;4.82;3.38;;;4.90;99.90;;;;;;5009984;28;20408;-81
2023/01/12 00:55:10;;;;;;;1.95;1.35;;;4.90;99.90;;;;;;5010516;28;20073;-80
2023/01/12 00:57:41;;;;;;;1.42;1.33;;;4.90;99.90;;;;;;4990201;28;20759;-80
2023/01/12 01:00:09;;;;;;;2.25;1.85;;;4.80;99.90;;;;;;5010371;28;20079;-81
2023/01/12 01:02:37;;;;;;;1.35;1.27;;;4.80;99.90;;;;;;4989400;28;20444;-81
2023/01/12 01:05:05;;;;;;;2.97;1.30;;;4.70;99.90;;;;;;5009954;28;20492;-80
2023/01/12 01:07:33;;;;;;;1.17;1.17;;;4.60;99.90;;;;;;5004108;28;20413;-81
2023/01/12 01:10:01;;;;;;;3.80;1.20;;;4.50;99.90;;;;;;4993714;28;20045;-81
2023/01/12 01:12:28;;;;;;;0.80;0.80;;;4.30;99.90;;;;;;5004691;28;20050;-80
2023/01/12 01:14:56;;;;;;;1.58;1.52;;;4.30;99.90;;;;;;5012594;28;20501;-81
2023/01/12 01:17:24;;;;;;;1.00;1.00;;;4.30;99.90;;;;;;5003721;28;20064;-81
2023/01/12 01:19:52;;;;;;;1.13;1.13;;;4.30;99.90;;;;;;5009418;28;20049;-81
2023/01/12 01:22:20;;;;;;;1.00;1.00;;;4.20;99.90;;;;;;5010901;28;20068;-81
2023/01/12 01:24:47;;;;;;;3.45;1.02;;;4.20;99.90;;;;;;4989307;28;20049;-80
2023/01/12 01:27:18;;;;;;;1.77;1.20;;;4.10;99.90;;;;;;5010687;28;20054;-81
2023/01/12 01:29:45;;;;;;;1.10;1.10;;;4.00;99.90;;;;;;5010589;28;20053;-81
2023/01/12 01:32:13;;;;;;;3.10;1.77;;;3.90;99.90;;;;;;5005714;28;20050;-81
2023/01/12 01:34:41;;;;;;;0.80;0.80;;;3.80;99.90;;;;;;4975122;28;20430;-81
2023/01/12 01:37:09;;;;;;;6.50;2.10;;;3.70;99.90;;;;;;4990047;28;20065;-81
2023/01/12 01:39:36;;;;;;;1.35;1.27;;;3.60;99.90;;;;;;4973258;28;20445;-81
2023/01/12 01:42:04;;;;;;;0.93;0.93;;;3.50;99.90;;;;;;4991356;28;20058;-81
2023/01/12 01:44:31;;;;;;;1.08;1.08;;;3.40;99.90;;;;;;4990990;28;20057;-81
2023/01/12 01:47:13;;;;;;;6.30;1.83;;;3.50;99.90;;;;;;5009064;28;20053;-81
2023/01/12 01:49:42;;;;;;;5.18;1.35;;;3.40;99.90;;;;;;5009838;28;20045;-81
2023/01/12 01:52:32;;;;;;;6.25;3.17;;;3.50;99.90;;;;;;5009225;28;20050;-81
2023/01/12 01:55:09;;;;;;;1.60;1.50;;;3.70;99.90;;;;;;4994174;28;20501;-81
2023/01/12 01:57:59;;;;;;;2.38;1.63;;;3.70;99.90;;;;;;5005239;28;20045;-81
2023/01/12 02:00:28;;;;;;;3.75;1.60;;;3.70;99.90;;;;;;4989348;28;20410;-87
2023/01/12 02:02:56;;;;;;;2.38;1.48;;;3.70;99.90;;;;;;4978380;28;20060;-89
2023/01/12 02:05:26;;;;;;;1.63;1.33;;;3.60;99.90;;;;;;5012163;28;20049;-89
2023/01/12 02:08:01;;;;;;;5.53;1.52;;;3.50;99.90;;;;;;5029651;28;20513;-88
2023/01/12 02:10:29;;;;;;;6.30;1.63;;;3.40;99.90;;;;;;5029694;28;20420;-88
2023/01/12 02:16:22;;;;;;;5.20;1.50;;;3.20;99.90;;;;;;4996114;28;20061;-88
2023/01/12 02:18:59;;;;;;;2.03;1.83;;;3.20;99.90;;;;;;4991384;28;20053;-88
2023/01/12 02:22:01;;;;;;;1.15;1.15;;;3.10;99.90;;;;;;5008895;28;20046;-88
2023/01/12 02:24:53;;;;;;;1.30;1.30;;;3.20;99.90;;;;;;4982281;28;20073;-87
2023/01/12 02:27:28;;;;;;;0.90;0.90;;;3.20;99.90;;;;;;4990162;28;20050;-87
2023/01/12 02:30:33;;;;;;;4.28;2.13;;;3.20;99.90;;;;;;4989618;28;20058;-88
2023/01/12 02:33:12;;;;;;;1.83;1.67;;;3.40;99.90;;;;;;4987316;28;20417;-86
2023/01/12 02:35:49;;;;;;;2.70;1.00;;;3.60;99.90;;;;;;4969197;28;20065;-87
2023/01/12 02:38:33;;;;;;;1.30;1.30;;;3.50;99.90;;;;;;4990547;28;20066;-87
2023/01/12 02:41:11;;;;;;;5.65;1.98;;;3.40;99.90;;;;;;4986677;28;20054;-87
2023/01/12 02:43:41;;;;;;;1.35;1.35;;;3.60;99.90;;;;;;4990517;28;20054;-88
2023/01/12 02:46:17;;;;;;;4.07;1.42;;;3.60;99.90;;;;;;4999404;28;20065;-86
2023/01/12 02:49:00;;;;;;;1.60;1.50;;;3.60;99.90;;;;;;5004475;28;20050;-88
2023/01/12 02:51:42;;;;;;;4.10;1.20;;;3.70;99.90;;;;;;5009126;28;20481;-86
2023/01/12 02:54:13;;;;;;;2.53;2.42;;;3.60;99.90;;;;;;4989850;28;20061;-88
2023/01/12 02:56:45;;;;;;;1.15;1.15;;;3.60;99.90;;;;;;4988174;28;20421;-86
2023/01/12 02:59:27;;;;;;;3.58;2.10;;;3.60;99.90;;;;;;4993061;28;20042;-86
2023/01/12 03:02:08;;;;;;;1.80;1.70;;;3.60;99.90;;;;;;5009761;28;20057;-86
2023/01/12 03:04:36;;;;;;;3.00;1.20;;;3.50;99.90;;;;;;5009082;28;20053;-86
2023/01/12 03:07:04;;;;;;;1.85;1.30;;;3.40;99.90;;;;;;5006893;28;20065;-86
2023/01/12 03:09:40;;;;;;;1.92;1.83;;;3.40;99.90;;;;;;4985573;28;20046;-87
2023/01/12 03:12:28;;;;;;;1.80;1.70;;;3.50;99.90;;;;;;5009697;28;20096;-87
2023/01/12 03:14:58;;;;;;;4.53;1.15;;;3.70;99.90;;;;;;5010271;28;20417;-87
2023/01/12 03:17:40;;;;;;;1.70;1.30;;;3.60;99.90;;;;;;5002505;28;20042;-86
2023/01/12 03:20:23;;;;;;;6.30;2.58;;;3.60;99.90;;;;;;5007796;28;20041;-87
2023/01/12 03:22:56;;;;;;;0.85;0.85;;;3.60;99.90;;;;;;5009843;28;20060;-88
2023/01/12 03:25:26;;;;;;;1.77;1.67;;;3.80;99.90;;;;;;5008059;28;20053;-87
2023/01/12 03:27:57;;;;;;;5.10;1.30;;;3.80;99.90;;;;;;5005651;28;20506;-88
2023/01/12 03:31:09;;;;;;;1.33;1.00;;;3.80;99.90;;;;;;5009127;28;20041;-86
2023/01/12 03:33:40;;;;;;;1.42;1.33;;;3.80;99.90;;;;;;5003932;28;20038;-87
2023/01/12 03:36:07;;;;;;;3.35;1.20;;;3.80;99.90;;;;;;4990978;28;20038;-88
2023/01/12 03:38:41;;;;;;;2.08;1.88;;;3.90;99.90;;;;;;5002658;28;20506;-88
2023/01/12 03:41:18;;;;;;;1.02;1.02;;;3.90;99.90;;;;;;5008580;28;20058;-87
2023/01/12 03:43:51;;;;;;;7.47;1.42;;;3.90;99.90;;;;;;5004229;28;20492;-89
2023/01/12 03:46:26;;;;;;;4.55;1.15;;;3.90;99.90;;;;;;4992421;28;20041;-88
2023/01/12 03:49:02;;;;;;;1.23;1.23;;;3.90;99.90;;;;;;5008470;28;20042;-88
2023/01/12 03:51:34;;;;;;;1.77;1.30;;;3.80;99.90;;;;;;5001072;28;20046;-87
2023/01/12 03:54:04;;;;;;;2.08;1.83;;;3.70;99.90;;;;;;5007330;28;20069;-88
2023/01/12 03:56:35;;;;;;;1.57;1.50;;;3.80;99.90;;;;;;5008616;28;20038;-86
2023/01/12 03:59:03;;;;;;;1.45;1.38;;;3.80;99.90;;;;;;5009375;28;20069;-88
2023/01/12 04:01:31;;;;;;;1.85;1.48;;;3.80;99.90;;;;;;4986419;28;20049;-87
2023/01/12 04:04:00;;;;;;;2.78;1.58;;;3.80;99.90;;;;;;4991693;28;20061;-89
2023/01/12 04:06:28;;;;;;;1.20;1.17;;;3.80;99.90;;;;;;4986459;28;20046;-87
2023/01/12 04:08:58;;;;;;;1.60;1.37;;;3.60;99.90;;;;;;5006457;28;20057;-90
2023/01/12 04:14:12;;;;;;;1.20;1.17;;;3.40;99.90;;;;;;5007522;28;20042;-90
2023/01/12 04:16:40;;;;;;;2.70;1.85;;;3.30;99.90;;;;;;5009798;28;20042;-88
2023/01/12 04:19:07;;;;;;;5.28;1.98;;;3.30;99.90;;;;;;5010193;28;20057;-89
2023/01/12 04:24:22;;;;;;;2.92;1.05;;;3.10;99.90;;;;;;4982471;28;20065;-89
2023/01/12 04:26:53;;;;;;;3.92;1.50;;;3.10;99.90;;;;;;5013822;28;20046;-89
2023/01/12 04:29:20;;;;;;;2.10;1.35;;;3.00;99.90;;;;;;4989858;28;20053;-90
2023/01/12 04:31:48;;;;;;;1.40;1.30;;;2.90;99.90;;;;;;5013822;28;20401;-89
2023/01/12 04:34:16;;;;;;;5.78;1.83;;;2.80;99.90;;;;;;4989515;28;20050;-89
2023/01/12 04:36:43;;;;;;;2.22;1.23;;;2.90;99.90;;;;;;5012889;28;20046;-89
2023/01/12 04:39:11;;;;;;;1.23;1.15;;;2.90;99.90;;;;;;5014007;28;20058;-89
2023/01/12 04:41:38;;;;;;;1.30;1.27;;;3.00;99.90;;;;;;4996341;28;20045;-88
2023/01/12 04:44:07;;;;;;;2.35;1.20;;;3.00;99.90;;;;;;5012462;28;20038;-87
2023/01/12 04:46:36;;;;;;;3.67;1.52;;;3.00;99.90;;;;;;5007122;28;20417;-88
2023/01/12 04:49:04;;;;;;;1.33;1.20;;;3.00;99.90;;;;;;4995551;28;20045;-88
2023/01/12 04:51:31;;;;;;;1.98;1.88;;;3.00;99.90;;;;;;4979786;28;20046;-89
2023/01/12 04:53:59;;;;;;;1.50;1.40;;;3.00;99.90;;;;;;5013497;28;20049;-90
2023/01/12 04:56:27;;;;;;;4.65;1.55;;;2.80;99.90;;;;;;5013353;28;20046;-91
2023/01/12 04:58:58;;;;;;;2.28;1.45;;;2.70;99.90;;;;;;5014326;28;20050;-89
2023/01/12 05:01:27;;;;;;;;;;;2.70;99.90;;;;;;4997820;28;20046;-89
2023/01/12 05:03:59;;;;;;;1.90;1.80;;;2.70;99.90;;;;;;4981031;28;19921;-90
2023/01/12 05:06:28;;;;;;;2.88;1.38;;;2.70;99.90;;;;;;4998248;28;20406;-88
2023/01/12 05:11:43;;;;;;;2.20;1.98;;;2.60;99.90;;;;;;4981472;28;20057;-88
2023/01/12 05:14:11;;;;;;;3.25;1.90;;;2.60;99.90;;;;;;5009304;28;20058;-87
2023/01/12 05:16:39;;;;;;;4.90;3.63;;;2.60;99.90;;;;;;5025520;28;20041;-90
2023/01/12 05:19:07;;;;;;;1.55;1.50;;;2.60;99.90;;;;;;5056494;28;20067;-88
2023/01/12 05:21:35;;;;;;;8.23;1.95;;;2.50;99.90;;;;;;5039104;28;20041;-89
2023/01/12 05:24:03;;;;;;;1.85;1.75;;;2.40;99.90;;;;;;5021962;28;20491;-88
2023/01/12 05:26:31;;;;;;;1.42;1.33;;;2.40;99.90;;;;;;5040274;28;20037;-88
2023/01/12 05:28:58;;;;;;;3.35;1.52;;;2.40;99.90;;;;;;5038832;28;20052;-88
2023/01/12 05:31:26;;;;;;;1.30;1.30;;;2.30;99.90;;;;;;5014858;28;20060;-88
2023/01/12 05:33:53;;;;;;;2.58;1.77;;;2.20;99.90;;;;;;5039601;28;20050;-88
2023/01/12 05:36:21;;;;;;;1.70;1.60;;;2.00;99.90;;;;;;5015473;28;20042;-88
2023/01/12 05:38:52;;;;;;;2.42;1.17;;;2.20;99.90;;;;;;5030868;28;20065;-89
2023/01/12 05:41:21;;;;;;;4.57;1.55;;;2.20;99.90;;;;;;5002629;28;20034;-89
2023/01/12 05:43:49;;;;;;;2.58;1.70;;;2.20;99.90;;;;;;4986997;28;20025;-87
2023/01/12 05:46:19;;;;;;;24.35;2.67;;;2.40;99.90;;;;;;5039223;28;20072;-88
2023/01/12 05:48:49;;;;;;;4.63;2.25;;;2.40;99.90;;;;;;5032527;28;20052;-89
2023/01/12 05:51:18;;;;;;;2.22;1.58;;;2.40;99.90;;;;;;5025103;28;20050;-89
2023/01/12 05:53:45;;;;;;;2.53;0.88;;;2.30;99.90;;;;;;4973884;28;20257;-88
2023/01/12 05:56:50;;;;;;;1.25;1.25;;;2.20;99.90;;;;;;4995221;28;20041;-88
2023/01/12 05:59:17;;;;;;;3.05;1.65;;;2.30;99.90;;;;;;5031655;28;20038;-89
2023/01/12 06:01:45;;;;;;;1.70;1.60;;;2.20;99.90;;;;;;5021110;28;20034;-89
2023/01/12 06:04:13;;;;;;;1.70;1.60;;;2.20;99.90;;;;;;5001062;28;20125;-89
2023/01/12 06:06:41;;;;;;;4.97;1.77;;;2.20;99.90;;;;;;4999575;28;20060;-90
2023/01/12 06:09:09;;;;;;;1.10;1.10;;;2.10;99.90;;;;;;5013196;28;20038;-90
2023/01/12 06:14:23;;;;;;;1.23;1.23;;;1.90;99.90;;;;;;5001701;28;20058;-90
2023/01/12 06:16:51;;;;;;;10.95;3.00;;;1.70;99.90;;;;;;4988936;28;20531;-91
2023/01/12 06:19:19;;;;;;;5.07;2.08;;;1.60;99.90;;;;;;4976997;28;20402;-90
2023/01/12 06:21:46;;;;;;;6.07;1.63;;;1.50;99.90;;;;;;4973923;28;20057;-90
2023/01/12 06:24:14;;;;;;;3.88;1.50;;;1.30;99.90;;;;;;4973388;28;20053;-88
2023/01/12 06:26:43;;;;;;;3.55;2.15;;;1.20;99.90;;;;;;4990768;28;20502;-88
2023/01/12 06:29:12;;;;;;;7.38;1.50;;;1.10;99.90;;;;;;5006728;28;20053;-90
2023/01/12 06:31:42;;;;;;;2.05;1.95;;;1.00;99.90;;;;;;4983294;28;20513;-89
2023/01/12 06:34:12;;;;;;;;;;;1.00;99.90;;;;;;4974079;28;20502;-89
2023/01/12 06:36:40;;;;;;;1.50;1.50;;;1.00;99.90;;;;;;4983848;28;19925;-88
2023/01/12 06:39:10;;;;;;;3.42;1.20;;;0.90;99.90;;;;;;5006122;28;20057;-89
2023/01/12 06:44:24;;;;;;;2.53;1.75;;;0.90;99.90;;;;;;4989020;28;20061;-90
2023/01/12 06:46:52;;;;;;;4.32;2.10;;;0.90;99.90;;;;;;5005972;28;20405;-90
2023/01/12 06:49:19;;;;;;;2.38;1.42;;;0.80;99.90;;;;;;4985277;28;20071;-89
2023/01/12 06:51:50;;;;;;;1.17;1.17;;;0.80;99.90;;;;;;5008809;28;20050;-89
2023/01/12 06:54:17;;;;;;;2.13;1.52;;;0.90;99.90;;;;;;5008422;28;20053;-90
2023/01/12 06:56:45;;;;;;;1.92;1.45;;;0.70;99.90;;;;;;5008352;28;20057;-90
2023/01/12 06:59:13;;;;;;;3.22;1.40;;;0.60;99.90;;;;;;5009380;28;20069;-89
2023/01/12 07:01:42;;;;;;;2.72;2.42;;;0.50;99.90;;;;;;4992776;28;20561;-89
2023/01/12 07:04:10;;;;;;;1.33;1.27;;;0.30;99.90;;;;;;5010113;28;20045;-88
2023/01/12 07:06:38;;;;;;;1.42;1.33;;;0.20;99.90;;;;;;4985269;28;20422;-88
2023/01/12 07:09:05;;;;;;;5.07;2.28;;;0.20;99.90;;;;;;4986680;28;20054;-89
2023/01/12 07:11:33;;;;;;;7.53;2.22;;;0.50;99.90;;;;;;4989720;28;20418;-88
2023/01/12 07:14:02;;;;;;;1.95;1.85;;;0.70;99.90;;;;;;4989620;28;20509;-88
2023/01/12 07:16:30;;;;;;;4.07;1.92;;;0.90;99.90;;;;;;4994463;28;20399;-88
2023/01/12 07:18:57;;;;;;;1.65;1.55;;;1.20;99.90;;;;;;5008529;28;20516;-87
2023/01/12 07:21:25;;;;;;;2.58;1.60;;;1.30;99.90;;;;;;5005924;28;20057;-86
2023/01/12 07:23:53;;;;;;;3.20;2.95;;;1.40;99.90;;;;;;5000118;28;20046;-89
2023/01/12 07:26:21;;;;;;;3.72;1.35;;;1.70;99.90;;;;;;5004450;28;20350;-88
2023/01/12 07:28:51;;;;;;;1.80;1.45;;;1.90;99.90;;;;;;5006080;28;20429;-89
2023/01/12 07:31:24;;;;;;;2.55;1.70;;;2.10;99.90;;;;;;4981814;28;20403;-88
2023/01/12 07:33:53;;;;;;;1.58;1.52;;;2.20;99.90;;;;;;4985352;28;20050;-89
2023/01/12 07:36:21;;;;;;;4.18;2.25;;;2.10;99.90;;;;;;4994396;28;20053;-90
2023/01/12 07:38:50;;;;;;;3.25;2.95;;;2.00;99.90;;;;;;4974439;28;20069;-88
2023/01/12 07:44:08;;;;;;;1.92;1.77;;;1.90;99.90;;;;;;4968613;28;20054;-90
2023/01/12 07:46:36;;;;;;;7.07;2.60;;;1.90;99.90;;;;;;4968279;28;20058;-90
2023/01/12 07:49:04;;;;;;;1.95;1.85;;;1.90;99.90;;;;;;4985093;28;20222;-89
2023/01/12 07:51:32;;;;;;;3.50;2.03;;;1.80;99.90;;;;;;4971298;28;20126;-89
2023/01/12 07:53:59;;;;;;;7.90;2.50;;;1.90;99.90;;;;;;4951923;28;20481;-91
2023/01/12 07:56:27;;;;;;;8.40;3.42;;;1.90;99.90;;;;;;4958548;28;20077;-89
2023/01/12 07:58:55;;;;;;;2.08;1.88;;;2.00;99.90;;;;;;4990206;28;20465;-90
2023/01/12 08:01:22;;;;;;;3.97;3.67;;;2.10;99.90;;;;;;4972093;28;20144;-88
2023/01/12 08:03:50;;;;;;;3.08;2.63;;;2.20;99.90;;;;;;4966866;28;20046;-88
2023/01/12 08:06:18;;;;;;;1.80;1.70;;;2.20;99.90;;;;;;4983146;28;20430;-90
2023/01/12 08:08:45;;;;;;;2.25;2.08;;;2.20;99.90;;;;;;4953380;28;20046;-88
2023/01/12 08:11:13;;;;;;;4.05;2.83;;;2.20;99.90;;;;;;4982588;28;20062;-91
2023/01/12 08:13:40;;;;;;;3.03;2.83;;;2.20;99.90;;;;;;4985284;28;20073;-90
2023/01/12 08:16:17;;;;;;;2.88;2.67;;;2.10;99.90;;;;;;4966716;28;20054;-89
2023/01/12 08:18:53;;;;;;;2.60;2.40;;;2.20;99.90;;;;;;4951655;28;20058;-91
2023/01/12 08:21:26;;;;;;;3.40;3.20;;;2.10;99.90;;;;;;4966634;28;20054;-91
2023/01/12 08:23:57;;;;;;;1.95;1.80;;;2.10;99.90;;;;;;4969488;28;20042;-92
2023/01/12 08:26:32;;;;;;;2.72;2.53;;;2.10;99.90;;;;;;4982902;28;20050;-89
2023/01/12 08:29:08;;;;;;;1.80;1.70;;;2.00;99.90;;;;;;4990368;28;20057;-90
2023/01/12 08:31:40;;;;;;;3.72;2.08;;;2.10;99.90;;;;;;4981495;28;20422;-90
2023/01/12 08:34:08;;;;;;;4.07;2.55;;;2.20;99.90;;;;;;4983969;28;20050;-90
2023/01/12 08:36:39;;;;;;;2.90;2.33;;;2.30;99.90;;;;;;4970586;28;20453;-89
2023/01/12 08:39:07;;;;;;;2.45;1.45;;;2.30;99.90;;;;;;4986799;28;20054;-90
2023/01/12 08:41:36;;;;;;;2.15;2.05;;;2.40;99.90;;;;;;4952086;28;20743;-93
2023/01/12 08:44:09;;;;;;;1.85;1.60;;;2.40;99.90;;;;;;4969513;28;20046;-90
2023/01/12 08:46:50;;;;;;;2.30;2.08;;;2.40;99.90;;;;;;4968612;28;20445;-90
2023/01/12 08:49:25;;;;;;;4.93;3.00;;;2.40;99.90;;;;;;4989787;28;20134;-93
2023/01/12 08:51:57;;;;;;;3.28;2.97;;;2.50;99.90;;;;;;4972166;28;20058;-94
2023/01/12 08:54:25;;;;;;;3.05;2.85;;;2.50;99.90;;;;;;4973790;28;20081;-93
2023/01/12 08:56:53;;;;;;;2.20;2.05;;;2.50;99.90;;;;;;4955262;28;20054;-93
2023/01/12 08:59:21;;;;;;;3.40;3.10;;;2.50;99.90;;;;;;4958356;28;20057;-93
2023/01/12 09:01:49;;;;;;;5.72;2.92;;;2.70;99.90;;;;;;4973516;28;20043;-94
2023/01/12 09:04:17;;;;;;;8.02;2.45;;;2.80;99.90;;;;;;4990600;28;20046;-93
2023/01/12 09:06:45;;;;;;;2.40;2.20;;;3.00;99.90;;;;;;4991113;28;20488;-91
2023/01/12 09:09:18;;;;;;;4.57;3.83;;;3.10;99.90;;;;;;4961275;28;20070;-92
2023/01/12 09:11:48;;;;;;;4.03;3.67;;;3.10;99.90;;;;;;4969811;28;20049;-90
2023/01/12 09:14:16;;;;;;;2.40;2.20;;;3.20;99.90;;;;;;4988705;28;20058;-88
2023/01/12 09:16:44;;;;;;;5.45;2.53;;;3.30;99.90;;;;;;4954435;28;20054;-91
2023/01/12 09:19:11;;;;;;;2.92;2.72;;;3.40;99.90;;;;;;4971443;28;20054;-88
2023/01/12 09:21:40;;;;;;;5.03;4.60;;;3.50;99.90;;;;;;4985026;28;20053;-89
2023/01/12 09:24:09;;;;;;;2.58;2.38;;;3.60;99.90;;;;;;4985783;28;20073;-91
2023/01/12 09:26:40;;;;;;;2.88;2.42;;;3.60;99.90;;;;;;4960603;28;20054;-91
2023/01/12 09:29:09;;;;;;;2.55;2.35;;;3.70;99.90;;;;;;4988715;28;20039;-91
2023/01/12 09:31:39;;;;;;;3.00;2.70;;;3.80;99.90;;;;;;4954169;28;20054;-91
2023/01/12 09:34:07;;;;;;;2.72;2.50;;;3.70;99.90;;;;;;4971019;28;20057;-90
2023/01/12 09:36:37;;;;;;;3.53;2.50;;;3.70;99.90;;;;;;4970814;28;20506;-91
2023/01/12 09:39:09;;;;;;;3.45;3.22;;;3.70;99.90;;;;;;4949373;28;20051;-90
2023/01/12 09:47:38;;;;;;;7.30;3.10;;;3.90;99.90;;;;;;4965322;28;20046;-88
2023/01/12 09:50:22;;;;;;;4.25;3.95;;;3.90;99.90;;;;;;4942011;28;20545;-94
2023/01/12 09:53:18;;;;;;;4.30;2.10;;;3.90;99.90;;;;;;4952116;28;20438;-93
2023/01/12 09:56:15;;;;;;;2.42;2.22;;;4.00;99.90;;;;;;4968775;28;20053;-91
2023/01/12 09:59:13;;;;;;;3.35;2.47;;;4.10;99.90;;;;;;4943715;28;20050;-90
2023/01/12 10:01:51;;;;;;;3.28;2.30;;;4.20;99.90;;;;;;4962297;28;20046;-92
2023/01/12 10:04:19;;;;;;;3.10;2.78;;;4.40;99.90;;;;;;4948996;28;20077;-91
2023/01/12 10:06:49;;;;;;;4.72;3.83;;;4.40;99.90;;;;;;4969889;28;20540;-90
2023/01/12 10:09:21;;;;;;;5.90;2.95;;;4.40;99.90;;;;;;4965762;28;20054;-91
2023/01/12 10:11:49;;;;;;;4.43;3.72;;;4.50;99.90;;;;;;4922215;28;20053;-90
2023/01/12 10:14:30;;;;;;;3.17;2.42;;;4.40;99.90;;;;;;4971905;28;20736;-90
2023/01/12 10:17:13;;;;;;;2.35;2.22;;;4.40;99.90;;;;;;4954858;28;20414;-91
2023/01/12 10:19:50;;;;;;;2.53;2.28;;;4.60;99.90;;;;;;4969373;28;20062;-90
2023/01/12 10:22:38;;;;;;;2.25;1.95;;;4.70;99.90;;;;;;4977648;28;20058;-90
2023/01/12 10:25:33;;;;;;;4.78;2.33;;;4.90;99.90;;;;;;4943750;28;20077;-92
2023/01/12 10:28:30;;;;;;;4.72;4.28;;;5.10;99.90;;;;;;4988281;28;20054;-91
2023/01/12 10:30:59;;;;;;;4.25;1.63;;;5.20;99.90;;;;;;4970515;28;20046;-90
2023/01/12 10:33:30;;;;;;;1.50;1.40;;;5.40;99.90;;;;;;4936002;28;20047;-88
2023/01/12 10:36:18;;;;;;;2.53;2.33;;;5.50;99.90;;;;;;4948312;28;20050;-92
2023/01/12 10:38:55;;;;;;;5.20;2.10;;;5.70;99.90;;;;;;4951112;28;20069;-91
2023/01/12 10:41:25;;;;;;;2.75;2.03;;;5.60;99.90;;;;;;4966508;28;20050;-91
2023/01/12 10:43:59;;;;;;;3.97;2.13;;;5.70;99.90;;;;;;4987802;28;20046;-92
2023/01/12 10:46:30;;;;;;;3.05;2.13;;;5.60;99.90;;;;;;4981639;28;20506;-90
2023/01/12 10:49:22;;;;;;;8.88;2.45;;;5.60;99.90;;;;;;4970687;28;20046;-91
2023/01/12 10:52:05;;;;;;;3.30;2.70;;;5.70;99.90;;;;;;4991568;28;20054;-92
2023/01/12 10:54:36;;;;;;;2.80;1.77;;;5.60;99.90;;;;;;4970140;28;20057;-92
2023/01/12 10:57:22;;;;;;;2.63;1.42;;;5.60;99.90;;;;;;4971213;28;20053;-91
2023/01/12 10:59:58;;;;;;;3.58;2.00;;;5.60;99.90;;;;;;4970435;28;20046;-91
2023/01/12 11:02:41;;;;;;;2.38;2.05;;;5.70;99.90;;;;;;4939090;28;20053;-88
2023/01/12 11:05:30;;;;;;;1.52;1.42;;;5.70;99.90;;;;;;4950701;28;20058;-91
2023/01/12 11:07:58;;;;;;;2.05;1.95;;;5.80;99.90;;;;;;4968858;28;20058;-92
2023/01/12 11:10:28;;;;;;;2.05;1.77;;;5.90;99.90;;;;;;4955356;28;20054;-91
2023/01/12 11:13:05;;;;;;;2.08;1.98;;;5.80;99.90;;;;;;4954812;28;20077;-92
2023/01/12 11:15:37;;;;;;;1.45;1.35;;;5.70;99.90;;;;;;4944867;28;20057;-91
2023/01/12 11:18:34;;;;;;;3.58;2.08;;;5.70;99.90;;;;;;4987648;28;20050;-92
2023/01/12 11:21:16;;;;;;;2.22;1.83;;;5.80;99.90;;;;;;4967676;28;20069;-91
2023/01/12 11:24:13;;;;;;;3.65;2.53;;;6.00;99.90;;;;;;4967899;28;20837;-91
2023/01/12 11:26:59;;;;;;;2.08;1.88;;;6.10;99.90;;;;;;4958989;28;20050;-90
2023/01/12 11:29:52;;;;;;;2.13;1.92;;;6.30;99.90;;;;;;4988612;28;20046;-91
2023/01/12 11:32:34;;;;;;;9.95;1.83;;;6.30;99.90;;;;;;4967344;28;20046;-91
2023/01/12 11:35:26;;;;;;;3.08;1.83;;;6.30;99.90;;;;;;4986172;28;20058;-90
2023/01/12 11:37:59;;;;;;;2.42;2.22;;;6.40;99.90;;;;;;4986917;28;20057;-90
2023/01/12 11:40:31;;;;;;;2.53;2.30;;;6.50;99.90;;;;;;4982349;28;20058;-90
2023/01/12 11:46:41;;;;;;;3.27;2.93;;;6.80;99.90;;;;;;4994765;28;20059;-90
2023/01/12 11:49:45;;;;;;;1.40;1.38;;;6.70;99.90;;;;;;4988592;28;20078;-93
2023/01/12 11:52:15;;;;;;;2.33;2.00;;;6.60;99.90;;;;;;4973270;28;20057;-92
2023/01/12 11:54:43;;;;;;;1.73;1.50;;;6.60;99.90;;;;;;4989594;28;20054;-92
2023/01/12 11:57:18;;;;;;;2.03;1.50;;;6.70;99.90;;;;;;4989294;28;20050;-90
2023/01/12 11:59:59;;;;;;;2.83;1.67;;;6.60;99.90;;;;;;4991010;28;20054;-91
2023/01/12 12:02:38;;;;;;;3.58;2.40;;;6.60;99.90;;;;;;4991200;28;20065;-92
2023/01/12 12:05:32;;;;;;;5.38;3.28;;;6.70;99.90;;;;;;4969369;28;20050;-90
2023/01/12 12:08:18;;;;;;;2.80;2.60;;;6.80;99.90;;;;;;4975496;28;20093;-90
2023/01/12 12:11:29;;;;;;;1.90;1.80;;;6.80;99.90;;;;;;4967593;28;20081;-92
2023/01/12 12:14:20;;;;;;;2.03;1.92;;;6.80;99.90;;;;;;4930943;29;20071;-93
2023/01/12 12:17:07;;;;;;;2.30;1.65;;;6.90;99.90;;;;;;4954530;28;20055;-91
2023/01/12 12:19:54;;;;;;;1.70;1.60;;;6.80;99.90;;;;;;4986682;28;20069;-89
2023/01/12 12:22:35;;;;;;;1.70;1.60;;;6.80;99.90;;;;;;4978711;28;20046;-91
2023/01/12 12:25:25;;;;;;;1.75;1.65;;;6.90;99.90;;;;;;4974198;28;20050;-90
2023/01/12 12:28:29;;;;;;;2.47;2.28;;;6.80;99.90;;;;;;4989277;28;20043;-90
2023/01/12 12:31:23;;;;;;;4.53;2.35;;;6.90;99.90;;;;;;4972737;28;20054;-93
2023/01/12 12:34:12;;;;;;;1.67;1.58;;;6.90;99.90;;;;;;4995703;28;20060;-90
2023/01/12 12:36:49;;;;;;;5.18;1.30;;;7.00;99.90;;;;;;4970524;28;20053;-88
2023/01/12 12:39:35;;;;;;;1.55;1.45;;;7.00;99.90;;;;;;4974731;28;20069;-88
2023/01/12 12:45:32;;;;;;;2.25;2.08;;;7.00;99.90;;;;;;4977893;28;20062;-91
2023/01/12 12:48:11;;;;;;;2.08;1.92;;;7.00;99.90;;;;;;4993563;28;20056;-90
2023/01/12 12:51:00;;;;;;;1.80;1.70;;;7.00;99.90;;;;;;4977868;28;20073;-88
2023/01/12 12:53:34;;;;;;;1.65;1.38;;;7.00;99.90;;;;;;4993089;28;20084;-86
2023/01/12 12:56:08;;;;;;;6.97;3.20;;;7.00;99.90;;;;;;4991999;28;20045;-88
2023/01/12 12:58:40;;;;;;;2.13;1.92;;;6.90;99.90;;;;;;5008630;28;20129;-88
2023/01/12 13:01:35;;;;;;;2.28;2.17;;;6.90;99.90;;;;;;5004070;28;20065;-88
2023/01/12 13:04:07;;;;;;;1.80;1.70;;;6.80;99.90;;;;;;5001155;28;20053;-89
2023/01/12 13:06:46;;;;;;;2.60;1.90;;;6.90;99.90;;;;;;5010465;28;20061;-88
2023/01/12 13:09:14;;;;;;;2.10;1.25;;;6.90;99.90;;;;;;4982477;28;20470;-88
2023/01/12 13:11:57;;;;;;;0.82;0.82;;;7.10;99.90;;;;;;4993359;28;20042;-87
2023/01/12 13:14:33;;;;;;;0.95;0.95;;;7.40;99.90;;;;;;5000118;28;20060;-89
2023/01/12 13:17:02;;;;;;;1.15;0.73;;;7.60;99.90;;;;;;4974439;28;20046;-89
2023/01/12 13:19:47;;;;;;;0.60;0.60;;;7.70;99.90;;;;;;4992644;28;20416;-87
2023/01/12 13:22:45;;;;;;;2.92;1.30;;;7.70;99.90;;;;;;4979082;28;20073;-91
2023/01/12 13:29:26;;;;;;;1.50;1.27;;;7.80;99.90;;;;;;4995220;28;20445;-88
2023/01/12 13:32:18;;;;;;;0.60;0.60;;;7.90;99.90;;;;;;4975492;28;20049;-86
2023/01/12 13:34:48;;;;;;;1.77;0.77;;;7.90;99.90;;;;;;4992061;28;20061;-89
2023/01/12 13:37:45;;;;;;;2.13;0.60;;;8.00;99.90;;;;;;5027821;28;20262;-89
2023/01/12 13:40:19;;;;;;;3.25;2.20;;;8.00;99.90;;;;;;5025874;28;20150;-92
2023/01/12 13:45:35;;;;;;;3.70;1.75;;;8.00;99.90;;;;;;5019405;28;20034;-91
2023/01/12 13:48:06;;;;;;;1.73;0.77;;;8.10;99.90;;;;;;5016892;28;20034;-91
2023/01/12 13:50:36;;;;;;;0.60;0.60;;;8.10;99.90;;;;;;5012075;28;20045;-87
2023/01/12 13:53:04;;;;;;;1.48;0.70;;;8.10;99.90;;;;;;5016497;28;20046;-90
2023/01/12 13:55:34;;;;;;;1.15;1.05;;;8.10;99.90;;;;;;5010711;28;20042;-86
2023/01/12 13:58:15;;;;;;;3.47;0.90;;;8.10;99.90;;;;;;5036956;28;20049;-88
2023/01/12 14:01:00;;;;;;;3.92;1.30;;;8.10;99.90;;;;;;4996369;28;20060;-90
2023/01/12 14:03:42;;;;;;;1.10;0.73;;;8.10;99.90;;;;;;5047872;28;20045;-90
2023/01/12 14:06:39;;;;;;;3.15;0.82;;;8.00;99.90;;;;;;5021019;28;20046;-90
2023/01/12 14:09:21;;;;;;;3.08;2.80;;;8.10;99.90;;;;;;5028027;28;20040;-89
2023/01/12 14:12:03;;;;;;;2.97;1.52;;;8.10;99.90;;;;;;5031571;28;20064;-89
2023/01/12 14:17:49;;;;;;;1.17;0.80;;;8.20;99.90;;;;;;5017461;28;20486;-90
2023/01/12 14:20:26;;;;;;;4.32;0.82;;;8.20;99.90;;;;;;5033715;28;20022;-88
2023/01/12 14:23:13;;;;;;;0.50;0.50;;;8.10;99.90;;;;;;5027880;28;20050;-87